Addis, Louisiana
Current Conditions -  °F | °C
As of 9:53 PM on Sunday 21 Dec 2014 (Local Time) from KBTR Reporting Station
Broken Clouds Broken Clouds  
Wind Chill: 51°   Ceiling: 9500
Heat Index: 51°   Visibility: 8mi
Dew Point: 48°   Wind: 7mph
Humidity: 89%   Direction: 90°E
Pressure: 29.96"   Gusts: NA
Location:  30.35°N, 91.27°W
Report Text: KBTR 220353Z 09006KT 8SM BKN095 11/09 A2996 RMK AO2 SLP143 T01060089
Loading
Personal Weather Stations






























Interactive Weather Map New forecast layout! Learn more

10-Day Weather Forecast

Advertisements
Track Severe Weather on mobile